Impacts TAF Board
For situational awareness. Not to be used for flight planning purposes.
IDs:

KLAX - Los Angeles Intl, CA, US

Issued at 0905 UTC 25 May 2020
Updated at 0910 UTC 25 May 2020
Potential Impact None Slight Moderate High
Time0853Z 25/10Z 25/11Z 25/12Z 25/13Z 25/14Z 25/15Z 25/16Z 25/17Z 25/18Z 25/19Z 25/20Z 25/21Z 25/22Z>>
Type OBS PRVL PRVL PRVL PRVL PRVL PRVL PRVL PRVL PRVL PRVL PRVL PRVL PRVL
VIS 10 >6 2 2 2 2 2 4 4 >6 >6 >6 >6 >6
CIG -- -- 4 4 4 4 4 -- -- -- -- -- -- --
Cover CLR SKC BKN BKN BKN BKN BKN SCT SCT SKC SKC SKC SKC SKC
FltCat VFR VFR LIFR LIFR LIFR LIFR LIFR MVFR MVFR VFR VFR VFR VFR VFR
WX -- -- BR BR BR BR BR HZ HZ -- -- -- -- --
WDir 240 250 120 120 120 120 120 VRB VRB 250 250 250 250 250
WSpd 5 6 5 5 5 5 5 3 3 7 7 12 12 12
WGst -- -- -- -- -- -- -- -- -- -- -- -- -- --
Raw TAF
KLAX 250905Z 2509/2612 25006KT P6SM SKC
  FM251100 12005KT 2SM BR BKN004
  FM251600 VRB03KT 4SM HZ SCT005
  FM251800 25007KT P6SM SKC
  FM252000 25012KT P6SM SKC
  FM260400 25006KT P6SM SKC
  FM260900 VRB03KT P6SM SKC


Raw METAR
KLAX 250853Z 24005KT 10SM CLR 16/12 A2989 RMK AO2 SLP119 T01560122 58004 $
KLAX 250753Z 14003KT 10SM CLR 16/13 A2989 RMK AO2 SLP121 T01560128 402110150 $
KLAX 250653Z 20003KT 10SM CLR 16/13 A2991 RMK AO2 SLP124 T01610128 $

METAR Board
Radar Display
Forecast Discussion
For situational awareness. Not to be used for flight planning purposes.